sensor_id;sensor_type;location;lat;lon;timestamp;P1;durP1;ratioP1;P2;durP2;ratioP2
73515;SDS011;61763;51.416;5.442;2023-04-24T00:01:47;14.00;;;7.15;;
73515;SDS011;61763;51.416;5.442;2023-04-24T00:04:15;15.52;;;6.32;;
73515;SDS011;61763;51.416;5.442;2023-04-24T00:06:42;19.45;;;7.22;;
73515;SDS011;61763;51.416;5.442;2023-04-24T00:09:10;12.50;;;5.75;;
73515;SDS011;61763;51.416;5.442;2023-04-24T00:11:37;15.25;;;7.18;;
73515;SDS011;61763;51.416;5.442;2023-04-24T00:16:29;10.00;;;5.32;;
73515;SDS011;61763;51.416;5.442;2023-04-24T00:18:54;11.52;;;6.68;;
73515;SDS011;61763;51.416;5.442;2023-04-24T00:21:21;13.50;;;6.72;;
73515;SDS011;61763;51.416;5.442;2023-04-24T00:23:47;16.52;;;7.95;;
73515;SDS011;61763;51.416;5.442;2023-04-24T00:26:13;15.43;;;6.10;;
73515;SDS011;61763;51.416;5.442;2023-04-24T00:28:39;16.05;;;7.00;;
73515;SDS011;61763;51.416;5.442;2023-04-24T00:31:05;13.88;;;6.25;;
73515;SDS011;61763;51.416;5.442;2023-04-24T00:33:30;15.18;;;5.90;;
73515;SDS011;61763;51.416;5.442;2023-04-24T00:35:55;13.00;;;5.55;;
73515;SDS011;61763;51.416;5.442;2023-04-24T00:38:21;14.95;;;6.68;;
73515;SDS011;61763;51.416;5.442;2023-04-24T00:40:48;14.52;;;6.82;;
73515;SDS011;61763;51.416;5.442;2023-04-24T00:43:15;14.23;;;6.70;;
73515;SDS011;61763;51.416;5.442;2023-04-24T00:45:40;17.85;;;6.88;;
73515;SDS011;61763;51.416;5.442;2023-04-24T00:48:06;15.98;;;7.20;;
73515;SDS011;61763;51.416;5.442;2023-04-24T00:50:32;14.23;;;7.35;;
73515;SDS011;61763;51.416;5.442;2023-04-24T00:52:58;14.82;;;7.63;;
73515;SDS011;61763;51.416;5.442;2023-04-24T00:55:24;19.92;;;8.50;;
73515;SDS011;61763;51.416;5.442;2023-04-24T00:57:49;19.70;;;7.90;;
73515;SDS011;61763;51.416;5.442;2023-04-24T01:00:17;15.27;;;7.57;;
73515;SDS011;61763;51.416;5.442;2023-04-24T01:02:43;22.15;;;8.68;;
73515;SDS011;61763;51.416;5.442;2023-04-24T01:07:37;17.00;;;7.90;;
73515;SDS011;61763;51.416;5.442;2023-04-24T01:10:04;23.38;;;8.50;;
73515;SDS011;61763;51.416;5.442;2023-04-24T01:12:29;19.65;;;9.50;;
73515;SDS011;61763;51.416;5.442;2023-04-24T01:14:55;16.05;;;5.18;;
73515;SDS011;61763;51.416;5.442;2023-04-24T01:17:21;20.98;;;9.93;;
73515;SDS011;61763;51.416;5.442;2023-04-24T01:19:47;23.40;;;10.45;;
73515;SDS011;61763;51.416;5.442;2023-04-24T01:22:13;15.57;;;8.32;;
73515;SDS011;61763;51.416;5.442;2023-04-24T01:24:40;22.63;;;9.43;;
73515;SDS011;61763;51.416;5.442;2023-04-24T01:27:06;21.42;;;8.48;;
73515;SDS011;61763;51.416;5.442;2023-04-24T01:29:32;19.25;;;9.65;;
73515;SDS011;61763;51.416;5.442;2023-04-24T01:31:58;16.73;;;8.05;;
73515;SDS011;61763;51.416;5.442;2023-04-24T01:34:24;20.08;;;9.00;;
73515;SDS011;61763;51.416;5.442;2023-04-24T01:36:51;19.05;;;9.90;;
73515;SDS011;61763;51.416;5.442;2023-04-24T01:39:16;17.67;;;8.27;;
73515;SDS011;61763;51.416;5.442;2023-04-24T01:41:42;23.55;;;9.70;;
73515;SDS011;61763;51.416;5.442;2023-04-24T01:44:07;14.52;;;6.63;;
73515;SDS011;61763;51.416;5.442;2023-04-24T01:46:33;23.88;;;9.50;;
73515;SDS011;61763;51.416;5.442;2023-04-24T01:49:00;19.02;;;9.27;;
73515;SDS011;61763;51.416;5.442;2023-04-24T01:51:25;24.85;;;9.68;;
73515;SDS011;61763;51.416;5.442;2023-04-24T01:53:51;21.08;;;10.70;;
73515;SDS011;61763;51.416;5.442;2023-04-24T01:56:18;24.25;;;10.35;;
73515;SDS011;61763;51.416;5.442;2023-04-24T01:58:46;23.35;;;10.65;;
73515;SDS011;61763;51.416;5.442;2023-04-24T02:01:17;24.55;;;10.05;;
73515;SDS011;61763;51.416;5.442;2023-04-24T02:03:43;21.75;;;9.80;;
73515;SDS011;61763;51.416;5.442;2023-04-24T02:06:09;21.73;;;9.63;;
73515;SDS011;61763;51.416;5.442;2023-04-24T02:08:34;20.15;;;9.00;;
73515;SDS011;61763;51.416;5.442;2023-04-24T02:11:00;25.20;;;10.27;;
73515;SDS011;61763;51.416;5.442;2023-04-24T02:13:27;22.20;;;10.38;;
73515;SDS011;61763;51.416;5.442;2023-04-24T02:15:52;18.35;;;8.57;;
73515;SDS011;61763;51.416;5.442;2023-04-24T02:18:17;18.80;;;8.90;;
73515;SDS011;61763;51.416;5.442;2023-04-24T02:20:42;23.08;;;9.82;;
73515;SDS011;61763;51.416;5.442;2023-04-24T02:23:08;22.65;;;10.05;;
73515;SDS011;61763;51.416;5.442;2023-04-24T02:25:33;26.30;;;10.77;;
73515;SDS011;61763;51.416;5.442;2023-04-24T02:27:58;18.77;;;9.00;;
73515;SDS011;61763;51.416;5.442;2023-04-24T02:30:24;21.60;;;9.27;;
73515;SDS011;61763;51.416;5.442;2023-04-24T02:32:49;25.67;;;9.60;;
73515;SDS011;61763;51.416;5.442;2023-04-24T02:35:14;19.03;;;10.27;;
73515;SDS011;61763;51.416;5.442;2023-04-24T02:37:40;24.50;;;8.52;;
73515;SDS011;61763;51.416;5.442;2023-04-24T02:40:05;21.50;;;10.15;;
73515;SDS011;61763;51.416;5.442;2023-04-24T02:42:33;20.88;;;9.48;;
73515;SDS011;61763;51.416;5.442;2023-04-24T02:44:58;18.45;;;9.18;;
73515;SDS011;61763;51.416;5.442;2023-04-24T02:47:23;17.33;;;8.50;;
73515;SDS011;61763;51.416;5.442;2023-04-24T02:49:49;19.70;;;8.65;;
73515;SDS011;61763;51.416;5.442;2023-04-24T02:52:14;21.27;;;8.98;;
73515;SDS011;61763;51.416;5.442;2023-04-24T02:54:40;21.58;;;9.35;;
73515;SDS011;61763;51.416;5.442;2023-04-24T02:57:05;21.05;;;8.45;;
73515;SDS011;61763;51.416;5.442;2023-04-24T02:59:31;16.75;;;6.70;;
73515;SDS011;61763;51.416;5.442;2023-04-24T03:01:56;21.33;;;9.15;;
73515;SDS011;61763;51.416;5.442;2023-04-24T03:04:22;18.35;;;8.27;;
73515;SDS011;61763;51.416;5.442;2023-04-24T03:06:48;18.48;;;7.88;;
73515;SDS011;61763;51.416;5.442;2023-04-24T03:09:13;16.65;;;7.63;;
73515;SDS011;61763;51.416;5.442;2023-04-24T03:11:38;13.68;;;6.55;;
73515;SDS011;61763;51.416;5.442;2023-04-24T03:14:05;16.17;;;8.02;;
73515;SDS011;61763;51.416;5.442;2023-04-24T03:16:30;17.52;;;7.40;;
73515;SDS011;61763;51.416;5.442;2023-04-24T03:18:56;17.52;;;7.57;;
73515;SDS011;61763;51.416;5.442;2023-04-24T03:21:22;16.55;;;7.78;;
73515;SDS011;61763;51.416;5.442;2023-04-24T03:23:47;18.40;;;8.68;;
73515;SDS011;61763;51.416;5.442;2023-04-24T03:26:13;16.92;;;7.88;;
73515;SDS011;61763;51.416;5.442;2023-04-24T03:28:38;13.07;;;6.32;;
73515;SDS011;61763;51.416;5.442;2023-04-24T03:31:04;15.90;;;7.05;;
73515;SDS011;61763;51.416;5.442;2023-04-24T03:33:29;14.77;;;7.93;;
73515;SDS011;61763;51.416;5.442;2023-04-24T03:35:54;15.75;;;8.05;;
73515;SDS011;61763;51.416;5.442;2023-04-24T03:38:20;16.13;;;7.97;;
73515;SDS011;61763;51.416;5.442;2023-04-24T03:40:46;15.15;;;6.20;;
73515;SDS011;61763;51.416;5.442;2023-04-24T03:43:11;17.52;;;7.07;;
73515;SDS011;61763;51.416;5.442;2023-04-24T03:45:37;16.23;;;7.88;;
73515;SDS011;61763;51.416;5.442;2023-04-24T03:48:03;17.52;;;8.00;;
73515;SDS011;61763;51.416;5.442;2023-04-24T03:50:28;16.65;;;7.47;;
73515;SDS011;61763;51.416;5.442;2023-04-24T03:52:54;15.05;;;7.82;;
73515;SDS011;61763;51.416;5.442;2023-04-24T03:55:19;14.32;;;7.35;;
73515;SDS011;61763;51.416;5.442;2023-04-24T03:57:45;16.02;;;7.15;;
73515;SDS011;61763;51.416;5.442;2023-04-24T04:00:10;17.63;;;7.73;;
73515;SDS011;61763;51.416;5.442;2023-04-24T04:02:36;14.07;;;6.43;;
73515;SDS011;61763;51.416;5.442;2023-04-24T04:05:02;11.65;;;5.93;;
73515;SDS011;61763;51.416;5.442;2023-04-24T04:07:27;12.73;;;7.03;;
73515;SDS011;61763;51.416;5.442;2023-04-24T04:09:54;11.43;;;6.60;;
73515;SDS011;61763;51.416;5.442;2023-04-24T04:12:20;8.25;;;4.28;;
73515;SDS011;61763;51.416;5.442;2023-04-24T04:14:46;13.07;;;6.57;;
73515;SDS011;61763;51.416;5.442;2023-04-24T04:17:12;14.05;;;6.80;;
73515;SDS011;61763;51.416;5.442;2023-04-24T04:19:37;12.98;;;5.47;;
73515;SDS011;61763;51.416;5.442;2023-04-24T04:22:02;11.80;;;5.63;;
73515;SDS011;61763;51.416;5.442;2023-04-24T04:24:28;11.52;;;5.03;;
73515;SDS011;61763;51.416;5.442;2023-04-24T04:26:53;11.23;;;4.95;;
73515;SDS011;61763;51.416;5.442;2023-04-24T04:29:23;11.52;;;5.70;;
73515;SDS011;61763;51.416;5.442;2023-04-24T04:31:48;10.40;;;4.75;;
73515;SDS011;61763;51.416;5.442;2023-04-24T04:34:14;13.82;;;5.53;;
73515;SDS011;61763;51.416;5.442;2023-04-24T04:36:40;11.65;;;4.88;;
73515;SDS011;61763;51.416;5.442;2023-04-24T04:39:06;8.60;;;4.50;;
73515;SDS011;61763;51.416;5.442;2023-04-24T04:41:33;12.82;;;6.28;;
73515;SDS011;61763;51.416;5.442;2023-04-24T04:44:02;10.07;;;4.88;;
73515;SDS011;61763;51.416;5.442;2023-04-24T04:46:29;10.80;;;4.97;;
73515;SDS011;61763;51.416;5.442;2023-04-24T04:48:57;12.07;;;5.55;;
73515;SDS011;61763;51.416;5.442;2023-04-24T04:51:22;10.57;;;4.72;;
73515;SDS011;61763;51.416;5.442;2023-04-24T04:53:48;9.50;;;5.45;;
73515;SDS011;61763;51.416;5.442;2023-04-24T04:56:13;11.32;;;5.70;;
73515;SDS011;61763;51.416;5.442;2023-04-24T04:58:39;12.07;;;5.25;;
73515;SDS011;61763;51.416;5.442;2023-04-24T05:01:05;10.63;;;5.43;;
73515;SDS011;61763;51.416;5.442;2023-04-24T05:03:30;7.70;;;3.50;;
73515;SDS011;61763;51.416;5.442;2023-04-24T05:05:55;10.43;;;4.88;;
73515;SDS011;61763;51.416;5.442;2023-04-24T05:08:20;9.63;;;4.82;;
73515;SDS011;61763;51.416;5.442;2023-04-24T05:10:46;9.88;;;5.00;;
73515;SDS011;61763;51.416;5.442;2023-04-24T05:13:11;11.15;;;4.60;;
73515;SDS011;61763;51.416;5.442;2023-04-24T05:15:36;5.90;;;2.90;;
73515;SDS011;61763;51.416;5.442;2023-04-24T05:18:02;8.93;;;3.93;;
73515;SDS011;61763;51.416;5.442;2023-04-24T05:20:28;9.05;;;3.20;;
73515;SDS011;61763;51.416;5.442;2023-04-24T05:22:54;6.00;;;2.80;;
73515;SDS011;61763;51.416;5.442;2023-04-24T05:25:19;5.32;;;1.92;;
73515;SDS011;61763;51.416;5.442;2023-04-24T05:27:45;8.52;;;2.25;;
73515;SDS011;61763;51.416;5.442;2023-04-24T05:30:11;5.15;;;1.60;;
73515;SDS011;61763;51.416;5.442;2023-04-24T05:32:37;6.80;;;2.15;;
73515;SDS011;61763;51.416;5.442;2023-04-24T05:35:03;4.25;;;1.75;;
73515;SDS011;61763;51.416;5.442;2023-04-24T05:37:28;4.93;;;1.40;;
73515;SDS011;61763;51.416;5.442;2023-04-24T05:39:54;4.55;;;1.73;;
73515;SDS011;61763;51.416;5.442;2023-04-24T05:42:19;2.85;;;1.23;;
73515;SDS011;61763;51.416;5.442;2023-04-24T05:44:45;3.40;;;0.85;;
73515;SDS011;61763;51.416;5.442;2023-04-24T05:47:10;5.13;;;1.77;;
73515;SDS011;61763;51.416;5.442;2023-04-24T05:49:35;2.75;;;1.13;;
73515;SDS011;61763;51.416;5.442;2023-04-24T05:52:01;2.38;;;1.15;;
73515;SDS011;61763;51.416;5.442;2023-04-24T05:54:28;4.97;;;1.27;;
73515;SDS011;61763;51.416;5.442;2023-04-24T05:56:53;3.00;;;1.05;;
73515;SDS011;61763;51.416;5.442;2023-04-24T05:59:20;4.20;;;0.95;;
73515;SDS011;61763;51.416;5.442;2023-04-24T06:01:46;9.95;;;1.77;;
73515;SDS011;61763;51.416;5.442;2023-04-24T06:04:11;4.00;;;1.42;;
73515;SDS011;61763;51.416;5.442;2023-04-24T06:06:38;3.72;;;1.23;;
73515;SDS011;61763;51.416;5.442;2023-04-24T06:09:04;4.60;;;1.30;;
73515;SDS011;61763;51.416;5.442;2023-04-24T06:11:29;11.63;;;1.35;;
73515;SDS011;61763;51.416;5.442;2023-04-24T06:13:55;3.75;;;1.20;;
73515;SDS011;61763;51.416;5.442;2023-04-24T06:16:21;5.63;;;1.80;;
73515;SDS011;61763;51.416;5.442;2023-04-24T06:18:46;6.68;;;2.72;;
73515;SDS011;61763;51.416;5.442;2023-04-24T06:21:12;7.40;;;2.63;;
73515;SDS011;61763;51.416;5.442;2023-04-24T06:23:37;7.55;;;2.60;;
73515;SDS011;61763;51.416;5.442;2023-04-24T06:26:03;7.23;;;2.40;;
73515;SDS011;61763;51.416;5.442;2023-04-24T06:28:28;6.63;;;2.60;;
73515;SDS011;61763;51.416;5.442;2023-04-24T06:30:54;7.93;;;3.75;;
73515;SDS011;61763;51.416;5.442;2023-04-24T06:33:19;10.52;;;4.18;;
73515;SDS011;61763;51.416;5.442;2023-04-24T06:35:44;9.38;;;4.20;;
73515;SDS011;61763;51.416;5.442;2023-04-24T06:38:10;13.73;;;5.13;;
73515;SDS011;61763;51.416;5.442;2023-04-24T06:40:35;11.50;;;4.03;;
73515;SDS011;61763;51.416;5.442;2023-04-24T06:43:01;12.70;;;4.00;;
73515;SDS011;61763;51.416;5.442;2023-04-24T06:45:27;10.80;;;3.88;;
73515;SDS011;61763;51.416;5.442;2023-04-24T06:47:54;14.35;;;5.93;;
73515;SDS011;61763;51.416;5.442;2023-04-24T06:50:19;14.30;;;4.75;;
73515;SDS011;61763;51.416;5.442;2023-04-24T06:52:44;12.35;;;4.63;;
73515;SDS011;61763;51.416;5.442;2023-04-24T06:55:10;13.73;;;6.03;;
73515;SDS011;61763;51.416;5.442;2023-04-24T06:57:36;11.23;;;5.03;;
73515;SDS011;61763;51.416;5.442;2023-04-24T07:00:01;13.98;;;6.43;;
73515;SDS011;61763;51.416;5.442;2023-04-24T07:02:29;12.45;;;5.18;;
73515;SDS011;61763;51.416;5.442;2023-04-24T07:04:54;11.82;;;4.32;;
73515;SDS011;61763;51.416;5.442;2023-04-24T07:07:20;13.27;;;7.03;;
73515;SDS011;61763;51.416;5.442;2023-04-24T07:09:45;17.00;;;7.70;;
73515;SDS011;61763;51.416;5.442;2023-04-24T07:12:13;14.25;;;5.88;;
73515;SDS011;61763;51.416;5.442;2023-04-24T07:14:39;18.00;;;7.07;;
73515;SDS011;61763;51.416;5.442;2023-04-24T07:17:04;17.05;;;5.28;;
73515;SDS011;61763;51.416;5.442;2023-04-24T07:19:31;16.45;;;6.97;;
73515;SDS011;61763;51.416;5.442;2023-04-24T07:21:58;19.17;;;7.43;;
73515;SDS011;61763;51.416;5.442;2023-04-24T07:24:24;14.45;;;7.50;;
73515;SDS011;61763;51.416;5.442;2023-04-24T07:26:50;12.35;;;5.95;;
73515;SDS011;61763;51.416;5.442;2023-04-24T07:29:17;14.50;;;6.72;;
73515;SDS011;61763;51.416;5.442;2023-04-24T07:31:42;15.23;;;7.55;;
73515;SDS011;61763;51.416;5.442;2023-04-24T07:34:08;14.85;;;5.03;;
73515;SDS011;61763;51.416;5.442;2023-04-24T07:36:34;12.57;;;6.07;;
73515;SDS011;61763;51.416;5.442;2023-04-24T07:39:00;17.35;;;6.05;;
73515;SDS011;61763;51.416;5.442;2023-04-24T07:41:25;13.50;;;4.78;;
73515;SDS011;61763;51.416;5.442;2023-04-24T07:43:52;12.82;;;4.07;;
73515;SDS011;61763;51.416;5.442;2023-04-24T07:46:18;12.60;;;5.38;;
73515;SDS011;61763;51.416;5.442;2023-04-24T07:48:45;14.18;;;4.80;;
73515;SDS011;61763;51.416;5.442;2023-04-24T07:51:12;15.43;;;4.15;;
73515;SDS011;61763;51.416;5.442;2023-04-24T07:53:38;12.48;;;4.25;;
73515;SDS011;61763;51.416;5.442;2023-04-24T07:56:04;17.58;;;4.15;;
73515;SDS011;61763;51.416;5.442;2023-04-24T07:58:30;11.18;;;4.50;;
73515;SDS011;61763;51.416;5.442;2023-04-24T08:00:55;10.20;;;4.00;;
73515;SDS011;61763;51.416;5.442;2023-04-24T08:03:20;15.97;;;4.57;;
73515;SDS011;61763;51.416;5.442;2023-04-24T08:05:46;17.25;;;3.90;;
73515;SDS011;61763;51.416;5.442;2023-04-24T08:08:11;11.35;;;5.00;;
73515;SDS011;61763;51.416;5.442;2023-04-24T08:10:37;18.42;;;4.72;;
73515;SDS011;61763;51.416;5.442;2023-04-24T08:13:02;21.40;;;5.25;;
73515;SDS011;61763;51.416;5.442;2023-04-24T08:15:28;19.70;;;6.05;;
73515;SDS011;61763;51.416;5.442;2023-04-24T08:17:53;14.85;;;4.82;;
73515;SDS011;61763;51.416;5.442;2023-04-24T08:20:20;13.80;;;5.03;;
73515;SDS011;61763;51.416;5.442;2023-04-24T08:22:46;16.00;;;5.15;;
73515;SDS011;61763;51.416;5.442;2023-04-24T08:25:14;11.35;;;4.70;;
73515;SDS011;61763;51.416;5.442;2023-04-24T08:27:40;17.55;;;4.85;;
73515;SDS011;61763;51.416;5.442;2023-04-24T08:30:06;11.02;;;3.67;;
73515;SDS011;61763;51.416;5.442;2023-04-24T08:32:32;12.38;;;3.35;;
73515;SDS011;61763;51.416;5.442;2023-04-24T08:34:57;11.68;;;3.75;;
73515;SDS011;61763;51.416;5.442;2023-04-24T08:37:23;16.83;;;4.25;;
73515;SDS011;61763;51.416;5.442;2023-04-24T08:39:50;13.02;;;3.30;;
73515;SDS011;61763;51.416;5.442;2023-04-24T08:42:16;10.45;;;3.90;;
73515;SDS011;61763;51.416;5.442;2023-04-24T08:44:43;15.70;;;3.10;;
73515;SDS011;61763;51.416;5.442;2023-04-24T08:47:09;19.63;;;3.75;;
73515;SDS011;61763;51.416;5.442;2023-04-24T08:49:37;7.47;;;2.65;;
73515;SDS011;61763;51.416;5.442;2023-04-24T08:54:31;12.30;;;2.88;;
73515;SDS011;61763;51.416;5.442;2023-04-24T08:56:59;10.70;;;2.40;;
73515;SDS011;61763;51.416;5.442;2023-04-24T08:59:29;9.63;;;2.10;;
73515;SDS011;61763;51.416;5.442;2023-04-24T09:01:58;11.52;;;2.45;;
73515;SDS011;61763;51.416;5.442;2023-04-24T09:04:26;8.13;;;1.95;;
73515;SDS011;61763;51.416;5.442;2023-04-24T09:06:55;6.03;;;1.95;;
73515;SDS011;61763;51.416;5.442;2023-04-24T09:09:22;9.35;;;2.42;;
73515;SDS011;61763;51.416;5.442;2023-04-24T09:11:50;10.95;;;1.48;;
73515;SDS011;61763;51.416;5.442;2023-04-24T09:14:16;11.43;;;2.08;;
73515;SDS011;61763;51.416;5.442;2023-04-24T09:16:42;10.15;;;1.70;;
73515;SDS011;61763;51.416;5.442;2023-04-24T09:19:08;10.55;;;1.98;;
73515;SDS011;61763;51.416;5.442;2023-04-24T09:21:33;6.63;;;1.38;;
73515;SDS011;61763;51.416;5.442;2023-04-24T09:24:04;5.78;;;2.05;;
73515;SDS011;61763;51.416;5.442;2023-04-24T09:26:31;6.95;;;1.23;;
73515;SDS011;61763;51.416;5.442;2023-04-24T09:29:00;8.35;;;1.40;;
73515;SDS011;61763;51.416;5.442;2023-04-24T09:31:29;6.93;;;1.23;;
73515;SDS011;61763;51.416;5.442;2023-04-24T09:33:59;6.75;;;1.40;;
73515;SDS011;61763;51.416;5.442;2023-04-24T09:36:37;6.03;;;1.00;;
73515;SDS011;61763;51.416;5.442;2023-04-24T09:39:04;6.93;;;1.00;;
73515;SDS011;61763;51.416;5.442;2023-04-24T09:41:33;7.70;;;1.50;;
73515;SDS011;61763;51.416;5.442;2023-04-24T09:44:15;6.07;;;1.13;;
73515;SDS011;61763;51.416;5.442;2023-04-24T09:46:56;7.97;;;1.67;;
73515;SDS011;61763;51.416;5.442;2023-04-24T09:49:25;6.93;;;1.48;;
73515;SDS011;61763;51.416;5.442;2023-04-24T09:52:08;8.95;;;1.48;;
73515;SDS011;61763;51.416;5.442;2023-04-24T09:54:34;6.88;;;1.30;;
73515;SDS011;61763;51.416;5.442;2023-04-24T09:57:01;5.05;;;0.70;;
73515;SDS011;61763;51.416;5.442;2023-04-24T09:59:30;7.88;;;1.65;;
73515;SDS011;61763;51.416;5.442;2023-04-24T10:01:56;5.85;;;1.17;;
73515;SDS011;61763;51.416;5.442;2023-04-24T10:04:27;8.55;;;1.20;;
73515;SDS011;61763;51.416;5.442;2023-04-24T10:06:54;7.15;;;0.85;;
73515;SDS011;61763;51.416;5.442;2023-04-24T10:09:22;7.80;;;0.80;;
73515;SDS011;61763;51.416;5.442;2023-04-24T10:11:50;3.90;;;0.52;;
73515;SDS011;61763;51.416;5.442;2023-04-24T10:14:19;5.15;;;0.77;;
73515;SDS011;61763;51.416;5.442;2023-04-24T10:16:48;6.07;;;0.68;;
73515;SDS011;61763;51.416;5.442;2023-04-24T10:19:16;7.20;;;1.20;;
73515;SDS011;61763;51.416;5.442;2023-04-24T10:21:43;1.92;;;0.47;;
73515;SDS011;61763;51.416;5.442;2023-04-24T10:24:13;6.70;;;1.05;;
73515;SDS011;61763;51.416;5.442;2023-04-24T10:26:40;6.85;;;0.88;;
73515;SDS011;61763;51.416;5.442;2023-04-24T10:29:05;6.57;;;0.70;;
73515;SDS011;61763;51.416;5.442;2023-04-24T10:31:35;4.88;;;0.60;;
73515;SDS011;61763;51.416;5.442;2023-04-24T10:34:01;4.00;;;0.63;;
73515;SDS011;61763;51.416;5.442;2023-04-24T10:36:28;8.55;;;0.93;;
73515;SDS011;61763;51.416;5.442;2023-04-24T10:38:57;7.38;;;0.75;;
73515;SDS011;61763;51.416;5.442;2023-04-24T10:44:10;9.55;;;0.93;;
73515;SDS011;61763;51.416;5.442;2023-04-24T10:46:37;6.75;;;1.00;;
73515;SDS011;61763;51.416;5.442;2023-04-24T10:49:03;5.18;;;0.65;;
73515;SDS011;61763;51.416;5.442;2023-04-24T10:54:28;2.63;;;0.38;;
73515;SDS011;61763;51.416;5.442;2023-04-24T11:00:12;2.15;;;0.30;;
73515;SDS011;61763;51.416;5.442;2023-04-24T11:02:45;2.65;;;0.32;;
73515;SDS011;61763;51.416;5.442;2023-04-24T11:05:18;5.90;;;0.73;;
73515;SDS011;61763;51.416;5.442;2023-04-24T11:10:26;2.17;;;0.55;;
73515;SDS011;61763;51.416;5.442;2023-04-24T11:12:51;1.15;;;0.20;;
73515;SDS011;61763;51.416;5.442;2023-04-24T11:15:17;2.15;;;0.40;;
73515;SDS011;61763;51.416;5.442;2023-04-24T11:20:11;1.52;;;0.35;;
73515;SDS011;61763;51.416;5.442;2023-04-24T11:22:41;3.72;;;0.30;;
73515;SDS011;61763;51.416;5.442;2023-04-24T11:25:07;5.93;;;0.60;;
73515;SDS011;61763;51.416;5.442;2023-04-24T11:27:40;1.95;;;0.20;;
73515;SDS011;61763;51.416;5.442;2023-04-24T11:30:07;4.18;;;0.30;;
73515;SDS011;61763;51.416;5.442;2023-04-24T11:40:04;3.85;;;0.50;;
73515;SDS011;61763;51.416;5.442;2023-04-24T11:42:38;3.38;;;0.22;;
73515;SDS011;61763;51.416;5.442;2023-04-24T11:47:35;1.55;;;0.15;;
73515;SDS011;61763;51.416;5.442;2023-04-24T11:50:00;1.90;;;0.40;;
73515;SDS011;61763;51.416;5.442;2023-04-24T11:52:27;4.35;;;0.43;;
73515;SDS011;61763;51.416;5.442;2023-04-24T11:54:58;2.97;;;0.40;;
73515;SDS011;61763;51.416;5.442;2023-04-24T11:57:24;3.03;;;0.45;;
73515;SDS011;61763;51.416;5.442;2023-04-24T11:59:53;5.90;;;0.40;;
73515;SDS011;61763;51.416;5.442;2023-04-24T12:02:20;1.77;;;0.40;;
73515;SDS011;61763;51.416;5.442;2023-04-24T12:04:46;0.70;;;0.30;;
73515;SDS011;61763;51.416;5.442;2023-04-24T12:07:12;5.13;;;0.60;;
73515;SDS011;61763;51.416;5.442;2023-04-24T12:09:41;4.03;;;0.30;;
73515;SDS011;61763;51.416;5.442;2023-04-24T12:12:11;1.80;;;0.20;;
73515;SDS011;61763;51.416;5.442;2023-04-24T12:14:44;1.95;;;0.45;;
73515;SDS011;61763;51.416;5.442;2023-04-24T12:17:14;1.75;;;0.45;;
73515;SDS011;61763;51.416;5.442;2023-04-24T12:19:44;2.47;;;0.50;;
73515;SDS011;61763;51.416;5.442;2023-04-24T12:22:11;4.72;;;0.30;;
73515;SDS011;61763;51.416;5.442;2023-04-24T12:24:55;0.75;;;0.15;;
73515;SDS011;61763;51.416;5.442;2023-04-24T12:27:24;2.28;;;0.15;;
73515;SDS011;61763;51.416;5.442;2023-04-24T12:29:53;1.88;;;0.50;;
73515;SDS011;61763;51.416;5.442;2023-04-24T12:32:20;1.05;;;0.30;;
73515;SDS011;61763;51.416;5.442;2023-04-24T12:34:46;1.15;;;0.20;;
73515;SDS011;61763;51.416;5.442;2023-04-24T12:37:11;1.60;;;0.28;;
73515;SDS011;61763;51.416;5.442;2023-04-24T12:39:37;1.02;;;0.30;;
73515;SDS011;61763;51.416;5.442;2023-04-24T12:42:03;6.10;;;0.40;;
73515;SDS011;61763;51.416;5.442;2023-04-24T12:44:29;3.17;;;0.30;;
73515;SDS011;61763;51.416;5.442;2023-04-24T12:46:56;2.67;;;0.28;;
73515;SDS011;61763;51.416;5.442;2023-04-24T12:49:22;2.60;;;0.40;;
73515;SDS011;61763;51.416;5.442;2023-04-24T12:51:47;2.58;;;0.10;;
73515;SDS011;61763;51.416;5.442;2023-04-24T12:54:12;2.50;;;0.43;;
73515;SDS011;61763;51.416;5.442;2023-04-24T12:56:38;2.00;;;0.30;;
73515;SDS011;61763;51.416;5.442;2023-04-24T12:59:04;1.50;;;0.10;;
73515;SDS011;61763;51.416;5.442;2023-04-24T13:01:30;2.15;;;0.75;;
73515;SDS011;61763;51.416;5.442;2023-04-24T13:03:55;1.58;;;0.43;;
73515;SDS011;61763;51.416;5.442;2023-04-24T13:06:21;1.27;;;0.35;;
73515;SDS011;61763;51.416;5.442;2023-04-24T13:08:46;2.92;;;0.40;;
73515;SDS011;61763;51.416;5.442;2023-04-24T13:11:12;2.30;;;0.30;;
73515;SDS011;61763;51.416;5.442;2023-04-24T13:13:38;3.45;;;0.50;;
73515;SDS011;61763;51.416;5.442;2023-04-24T13:16:03;1.73;;;0.40;;
73515;SDS011;61763;51.416;5.442;2023-04-24T13:18:29;4.68;;;0.60;;
73515;SDS011;61763;51.416;5.442;2023-04-24T13:20:55;2.63;;;0.63;;
73515;SDS011;61763;51.416;5.442;2023-04-24T13:23:20;2.00;;;0.52;;
73515;SDS011;61763;51.416;5.442;2023-04-24T13:25:46;2.83;;;0.45;;
73515;SDS011;61763;51.416;5.442;2023-04-24T13:28:12;3.58;;;0.63;;
73515;SDS011;61763;51.416;5.442;2023-04-24T13:30:37;1.95;;;0.57;;
73515;SDS011;61763;51.416;5.442;2023-04-24T13:33:03;1.70;;;0.30;;
73515;SDS011;61763;51.416;5.442;2023-04-24T13:35:28;2.70;;;0.47;;
73515;SDS011;61763;51.416;5.442;2023-04-24T13:37:54;1.92;;;0.60;;
73515;SDS011;61763;51.416;5.442;2023-04-24T13:40:19;2.45;;;0.63;;
73515;SDS011;61763;51.416;5.442;2023-04-24T13:42:44;3.45;;;0.80;;
73515;SDS011;61763;51.416;5.442;2023-04-24T13:45:10;3.83;;;0.30;;
73515;SDS011;61763;51.416;5.442;2023-04-24T13:47:36;2.97;;;0.30;;
73515;SDS011;61763;51.416;5.442;2023-04-24T13:50:01;5.65;;;0.50;;
73515;SDS011;61763;51.416;5.442;2023-04-24T13:52:27;5.43;;;0.40;;
73515;SDS011;61763;51.416;5.442;2023-04-24T13:54:52;3.00;;;0.63;;
73515;SDS011;61763;51.416;5.442;2023-04-24T13:57:18;5.45;;;0.40;;
73515;SDS011;61763;51.416;5.442;2023-04-24T13:59:43;4.03;;;0.80;;
73515;SDS011;61763;51.416;5.442;2023-04-24T14:02:11;4.97;;;0.52;;
73515;SDS011;61763;51.416;5.442;2023-04-24T14:04:36;3.03;;;0.73;;
73515;SDS011;61763;51.416;5.442;2023-04-24T14:07:01;2.15;;;0.65;;
73515;SDS011;61763;51.416;5.442;2023-04-24T14:09:27;4.00;;;0.45;;
73515;SDS011;61763;51.416;5.442;2023-04-24T14:11:52;5.68;;;0.70;;
73515;SDS011;61763;51.416;5.442;2023-04-24T14:14:17;3.25;;;0.52;;
73515;SDS011;61763;51.416;5.442;2023-04-24T14:16:43;2.70;;;0.52;;
73515;SDS011;61763;51.416;5.442;2023-04-24T14:19:08;5.00;;;0.68;;
73515;SDS011;61763;51.416;5.442;2023-04-24T14:21:33;3.92;;;0.45;;
73515;SDS011;61763;51.416;5.442;2023-04-24T14:23:59;3.58;;;0.32;;
73515;SDS011;61763;51.416;5.442;2023-04-24T14:26:25;3.72;;;0.70;;
73515;SDS011;61763;51.416;5.442;2023-04-24T14:28:50;5.40;;;0.55;;
73515;SDS011;61763;51.416;5.442;2023-04-24T14:31:17;6.85;;;0.80;;
73515;SDS011;61763;51.416;5.442;2023-04-24T14:33:43;3.65;;;0.75;;
73515;SDS011;61763;51.416;5.442;2023-04-24T14:36:08;2.95;;;0.43;;
73515;SDS011;61763;51.416;5.442;2023-04-24T14:38:34;4.25;;;0.60;;
73515;SDS011;61763;51.416;5.442;2023-04-24T14:40:59;1.48;;;0.25;;
73515;SDS011;61763;51.416;5.442;2023-04-24T14:43:26;3.08;;;0.45;;
73515;SDS011;61763;51.416;5.442;2023-04-24T14:45:51;5.57;;;1.25;;
73515;SDS011;61763;51.416;5.442;2023-04-24T14:48:17;5.05;;;0.57;;
73515;SDS011;61763;51.416;5.442;2023-04-24T14:50:42;2.40;;;0.50;;
73515;SDS011;61763;51.416;5.442;2023-04-24T14:53:08;2.83;;;0.40;;
73515;SDS011;61763;51.416;5.442;2023-04-24T14:55:33;2.72;;;0.40;;
73515;SDS011;61763;51.416;5.442;2023-04-24T15:00:26;2.15;;;0.45;;
73515;SDS011;61763;51.416;5.442;2023-04-24T15:02:51;3.38;;;0.30;;
73515;SDS011;61763;51.416;5.442;2023-04-24T15:05:17;3.08;;;0.22;;
73515;SDS011;61763;51.416;5.442;2023-04-24T15:07:42;3.72;;;0.30;;
73515;SDS011;61763;51.416;5.442;2023-04-24T15:10:08;4.93;;;0.82;;